logo
Rechercher aéroport 
image banner adimage banner adimage banner ad
image banner ad

DIKB - Bouake

Situé à , Cote D'Ivoire

ICAO - , IATA -

Données fournies par Airmate  

Information générale

Coordonnées: N7°45'9" W5°4'4"
Élévation : 1231 feet MSL.
Variation magnétique : -5° East
Voir autres Aéroports à Vallée du Bandama

Données opérationnelles

Special qualification required
Heure actuelle UTC:
Heure actuelle locale:
Météo à : DIBK - Bouake ( 0 km )
METAR: DIBK 172000Z 00000KT 8000 TS FEW011 FEW020CB 23/23 Q1013 NOSIG
TAF: TAF DIBK 171715Z 1718/1818 19007KT 9999 SCT013 PROB40 TEMPO 1718/1722 4000 TSRA BKN010 FEW023CB BKN030 PROB40 1805/1810 4000 DZ BR FEW005 BKN010 BECMG 1809/1810 BKN011 BECMG 1815/1816 SCT013
Voir NOTAMs / SUP AIP / TFR affectant cet aéroport [VIEW]
Fréquences de communication: [VIEW]

Pistes:

Identifiant RWYQFULongueur (ft)Largeur (ft)SurfaceLDA (ft)
2110827148ASPH
0310827148ASPH

Coordonnées de l'aéroport

Adresse: Cote D'Ivoire

Vue satellite de DIKB